sensor_id;sensor_type;location;lat;lon;timestamp;P1;durP1;ratioP1;P2;durP2;ratioP2
40953;SDS011;26686;50.130;8.710;2022-08-02T00:02:08;1.77;;;1.00;;
40953;SDS011;26686;50.130;8.710;2022-08-02T00:07:09;1.45;;;1.02;;
40953;SDS011;26686;50.130;8.710;2022-08-02T00:12:11;1.40;;;1.17;;
40953;SDS011;26686;50.130;8.710;2022-08-02T00:17:13;1.23;;;1.08;;
40953;SDS011;26686;50.130;8.710;2022-08-02T00:22:14;1.67;;;1.25;;
40953;SDS011;26686;50.130;8.710;2022-08-02T00:27:16;3.20;;;1.45;;
40953;SDS011;26686;50.130;8.710;2022-08-02T00:32:17;0.82;;;0.82;;
40953;SDS011;26686;50.130;8.710;2022-08-02T00:37:18;1.10;;;1.00;;
40953;SDS011;26686;50.130;8.710;2022-08-02T00:42:20;1.13;;;0.77;;
40953;SDS011;26686;50.130;8.710;2022-08-02T00:47:21;0.95;;;0.80;;
40953;SDS011;26686;50.130;8.710;2022-08-02T00:52:23;0.90;;;0.90;;
40953;SDS011;26686;50.130;8.710;2022-08-02T00:57:24;1.20;;;0.95;;
40953;SDS011;26686;50.130;8.710;2022-08-02T01:02:25;1.48;;;0.98;;
40953;SDS011;26686;50.130;8.710;2022-08-02T01:07:27;1.83;;;1.08;;
40953;SDS011;26686;50.130;8.710;2022-08-02T01:12:28;1.45;;;1.17;;
40953;SDS011;26686;50.130;8.710;2022-08-02T01:17:44;1.13;;;0.90;;
40953;SDS011;26686;50.130;8.710;2022-08-02T01:33:29;1.63;;;1.10;;
40953;SDS011;26686;50.130;8.710;2022-08-02T01:38:39;1.33;;;0.95;;
40953;SDS011;26686;50.130;8.710;2022-08-02T01:43:45;1.02;;;0.90;;
40953;SDS011;26686;50.130;8.710;2022-08-02T01:48:47;1.02;;;0.93;;
40953;SDS011;26686;50.130;8.710;2022-08-02T01:53:50;1.40;;;1.10;;
40953;SDS011;26686;50.130;8.710;2022-08-02T01:58:52;1.30;;;1.13;;
40953;SDS011;26686;50.130;8.710;2022-08-02T02:03:54;1.65;;;0.95;;
40953;SDS011;26686;50.130;8.710;2022-08-02T02:08:56;2.45;;;1.10;;
40953;SDS011;26686;50.130;8.710;2022-08-02T02:14:00;1.10;;;1.00;;
40953;SDS011;26686;50.130;8.710;2022-08-02T02:19:03;0.88;;;0.80;;
40953;SDS011;26686;50.130;8.710;2022-08-02T02:24:07;1.73;;;1.20;;
40953;SDS011;26686;50.130;8.710;2022-08-02T02:29:12;2.08;;;1.25;;
40953;SDS011;26686;50.130;8.710;2022-08-02T02:34:15;1.30;;;1.20;;
40953;SDS011;26686;50.130;8.710;2022-08-02T02:39:24;1.05;;;0.95;;
40953;SDS011;26686;50.130;8.710;2022-08-02T02:44:28;1.08;;;0.90;;
40953;SDS011;26686;50.130;8.710;2022-08-02T02:49:32;1.75;;;1.20;;
40953;SDS011;26686;50.130;8.710;2022-08-02T02:54:35;1.33;;;1.10;;
40953;SDS011;26686;50.130;8.710;2022-08-02T02:59:38;1.20;;;1.10;;
40953;SDS011;26686;50.130;8.710;2022-08-02T03:04:49;1.88;;;1.10;;
40953;SDS011;26686;50.130;8.710;2022-08-02T03:09:58;1.30;;;1.20;;
40953;SDS011;26686;50.130;8.710;2022-08-02T03:15:00;1.20;;;1.10;;
40953;SDS011;26686;50.130;8.710;2022-08-02T03:20:06;1.98;;;1.60;;
40953;SDS011;26686;50.130;8.710;2022-08-02T03:25:10;2.10;;;1.40;;
40953;SDS011;26686;50.130;8.710;2022-08-02T03:30:13;1.85;;;1.35;;
40953;SDS011;26686;50.130;8.710;2022-08-02T03:35:15;1.25;;;1.15;;
40953;SDS011;26686;50.130;8.710;2022-08-02T03:40:24;1.92;;;1.40;;
40953;SDS011;26686;50.130;8.710;2022-08-02T03:45:27;1.25;;;1.00;;
40953;SDS011;26686;50.130;8.710;2022-08-02T03:50:30;1.47;;;1.37;;
40953;SDS011;26686;50.130;8.710;2022-08-02T03:55:34;1.15;;;0.77;;
40953;SDS011;26686;50.130;8.710;2022-08-02T04:00:36;3.03;;;1.00;;
40953;SDS011;26686;50.130;8.710;2022-08-02T04:05:38;1.50;;;1.20;;
40953;SDS011;26686;50.130;8.710;2022-08-02T04:10:59;1.13;;;1.00;;
40953;SDS011;26686;50.130;8.710;2022-08-02T04:16:20;1.73;;;1.23;;
40953;SDS011;26686;50.130;8.710;2022-08-02T04:21:25;1.30;;;1.20;;
40953;SDS011;26686;50.130;8.710;2022-08-02T04:26:48;2.67;;;2.20;;
40953;SDS011;26686;50.130;8.710;2022-08-02T04:31:51;1.23;;;1.02;;
40953;SDS011;26686;50.130;8.710;2022-08-02T04:36:54;2.78;;;1.20;;
40953;SDS011;26686;50.130;8.710;2022-08-02T04:41:56;11.23;;;1.83;;
40953;SDS011;26686;50.130;8.710;2022-08-02T04:46:58;1.60;;;1.50;;
40953;SDS011;26686;50.130;8.710;2022-08-02T04:52:07;1.33;;;1.23;;
40953;SDS011;26686;50.130;8.710;2022-08-02T04:57:08;1.73;;;1.48;;
40953;SDS011;26686;50.130;8.710;2022-08-02T05:02:30;2.72;;;2.03;;
40953;SDS011;26686;50.130;8.710;2022-08-02T05:07:54;2.38;;;1.38;;
40953;SDS011;26686;50.130;8.710;2022-08-02T05:12:56;1.63;;;1.50;;
40953;SDS011;26686;50.130;8.710;2022-08-02T05:17:58;1.83;;;1.23;;
40953;SDS011;26686;50.130;8.710;2022-08-02T05:23:01;3.17;;;1.40;;
40953;SDS011;26686;50.130;8.710;2022-08-02T05:28:03;2.20;;;1.27;;
40953;SDS011;26686;50.130;8.710;2022-08-02T05:33:11;4.30;;;1.90;;
40953;SDS011;26686;50.130;8.710;2022-08-02T05:38:12;3.72;;;2.08;;
40953;SDS011;26686;50.130;8.710;2022-08-02T05:43:15;2.13;;;1.90;;
40953;SDS011;26686;50.130;8.710;2022-08-02T05:48:16;2.40;;;2.05;;
40953;SDS011;26686;50.130;8.710;2022-08-02T05:53:23;1.77;;;1.20;;
40953;SDS011;26686;50.130;8.710;2022-08-02T05:58:39;1.65;;;1.55;;
40953;SDS011;26686;50.130;8.710;2022-08-02T06:03:50;1.42;;;1.17;;
40953;SDS011;26686;50.130;8.710;2022-08-02T06:08:59;2.35;;;1.60;;
40953;SDS011;26686;50.130;8.710;2022-08-02T06:14:04;1.60;;;1.35;;
40953;SDS011;26686;50.130;8.710;2022-08-02T06:19:07;1.40;;;1.20;;
40953;SDS011;26686;50.130;8.710;2022-08-02T06:24:09;2.58;;;1.55;;
40953;SDS011;26686;50.130;8.710;2022-08-02T06:29:10;1.75;;;1.38;;
40953;SDS011;26686;50.130;8.710;2022-08-02T06:34:12;2.85;;;1.20;;
40953;SDS011;26686;50.130;8.710;2022-08-02T06:39:22;1.90;;;1.30;;
40953;SDS011;26686;50.130;8.710;2022-08-02T06:44:31;2.47;;;0.95;;
40953;SDS011;26686;50.130;8.710;2022-08-02T06:49:53;1.42;;;1.15;;
40953;SDS011;26686;50.130;8.710;2022-08-02T06:54:59;2.85;;;1.30;;
40953;SDS011;26686;50.130;8.710;2022-08-02T07:00:04;1.48;;;0.75;;
40953;SDS011;26686;50.130;8.710;2022-08-02T07:05:09;1.50;;;0.90;;
40953;SDS011;26686;50.130;8.710;2022-08-02T07:10:11;2.58;;;1.40;;
40953;SDS011;26686;50.130;8.710;2022-08-02T07:15:13;1.63;;;1.30;;
40953;SDS011;26686;50.130;8.710;2022-08-02T07:20:16;1.48;;;1.20;;
40953;SDS011;26686;50.130;8.710;2022-08-02T07:25:17;5.05;;;1.45;;
40953;SDS011;26686;50.130;8.710;2022-08-02T07:30:19;3.58;;;1.50;;
40953;SDS011;26686;50.130;8.710;2022-08-02T07:35:20;2.28;;;1.17;;
40953;SDS011;26686;50.130;8.710;2022-08-02T07:40:22;1.42;;;1.30;;
40953;SDS011;26686;50.130;8.710;2022-08-02T07:45:25;1.52;;;0.98;;
40953;SDS011;26686;50.130;8.710;2022-08-02T07:50:27;1.60;;;1.10;;
40953;SDS011;26686;50.130;8.710;2022-08-02T07:55:28;2.20;;;1.50;;
40953;SDS011;26686;50.130;8.710;2022-08-02T08:00:41;1.83;;;1.27;;
40953;SDS011;26686;50.130;8.710;2022-08-02T08:05:43;1.48;;;1.00;;
40953;SDS011;26686;50.130;8.710;2022-08-02T08:10:44;1.65;;;0.77;;
40953;SDS011;26686;50.130;8.710;2022-08-02T08:15:46;2.27;;;1.70;;
40953;SDS011;26686;50.130;8.710;2022-08-02T08:20:52;2.30;;;1.40;;
40953;SDS011;26686;50.130;8.710;2022-08-02T08:25:54;20.27;;;4.17;;
40953;SDS011;26686;50.130;8.710;2022-08-02T08:30:55;2.20;;;0.75;;
40953;SDS011;26686;50.130;8.710;2022-08-02T08:35:57;1.48;;;0.88;;
40953;SDS011;26686;50.130;8.710;2022-08-02T08:41:02;0.73;;;0.60;;
40953;SDS011;26686;50.130;8.710;2022-08-02T08:46:04;1.05;;;0.85;;
40953;SDS011;26686;50.130;8.710;2022-08-02T08:51:07;2.78;;;0.93;;
40953;SDS011;26686;50.130;8.710;2022-08-02T08:56:14;0.93;;;0.65;;
40953;SDS011;26686;50.130;8.710;2022-08-02T09:01:16;1.10;;;0.60;;
40953;SDS011;26686;50.130;8.710;2022-08-02T09:06:18;7.47;;;1.15;;
40953;SDS011;26686;50.130;8.710;2022-08-02T09:11:24;1.17;;;0.63;;
40953;SDS011;26686;50.130;8.710;2022-08-02T09:16:36;0.85;;;0.50;;
40953;SDS011;26686;50.130;8.710;2022-08-02T09:21:39;0.93;;;0.43;;
40953;SDS011;26686;50.130;8.710;2022-08-02T09:26:40;2.58;;;0.60;;
40953;SDS011;26686;50.130;8.710;2022-08-02T09:31:42;0.98;;;0.50;;
40953;SDS011;26686;50.130;8.710;2022-08-02T09:36:50;1.73;;;0.52;;
40953;SDS011;26686;50.130;8.710;2022-08-02T09:41:54;2.45;;;0.47;;
40953;SDS011;26686;50.130;8.710;2022-08-02T09:47:13;1.70;;;0.40;;
40953;SDS011;26686;50.130;8.710;2022-08-02T09:52:20;0.63;;;0.50;;
40953;SDS011;26686;50.130;8.710;2022-08-02T09:57:37;3.47;;;0.63;;
40953;SDS011;26686;50.130;8.710;2022-08-02T10:02:39;1.00;;;0.50;;
40953;SDS011;26686;50.130;8.710;2022-08-02T10:07:40;4.10;;;0.75;;
40953;SDS011;26686;50.130;8.710;2022-08-02T10:12:42;0.77;;;0.65;;
40953;SDS011;26686;50.130;8.710;2022-08-02T10:17:43;1.38;;;0.80;;
40953;SDS011;26686;50.130;8.710;2022-08-02T10:22:45;2.92;;;1.20;;
40953;SDS011;26686;50.130;8.710;2022-08-02T10:33:05;2.88;;;0.80;;
40953;SDS011;26686;50.130;8.710;2022-08-02T10:38:09;2.97;;;0.50;;
40953;SDS011;26686;50.130;8.710;2022-08-02T10:43:12;4.20;;;0.70;;
40953;SDS011;26686;50.130;8.710;2022-08-02T10:48:59;1.45;;;0.70;;
40953;SDS011;26686;50.130;8.710;2022-08-02T10:54:38;0.50;;;0.43;;
40953;SDS011;26686;50.130;8.710;2022-08-02T10:59:44;1.63;;;0.52;;
40953;SDS011;26686;50.130;8.710;2022-08-02T11:09:55;0.50;;;0.40;;
40953;SDS011;26686;50.130;8.710;2022-08-02T11:15:00;0.68;;;0.40;;
40953;SDS011;26686;50.130;8.710;2022-08-02T11:25:34;0.90;;;0.57;;
40953;SDS011;26686;50.130;8.710;2022-08-02T11:30:58;1.10;;;0.60;;
40953;SDS011;26686;50.130;8.710;2022-08-02T11:36:02;1.70;;;0.50;;
40953;SDS011;26686;50.130;8.710;2022-08-02T11:41:05;1.10;;;0.47;;
40953;SDS011;26686;50.130;8.710;2022-08-02T11:46:11;1.35;;;0.60;;
40953;SDS011;26686;50.130;8.710;2022-08-02T11:51:15;1.33;;;0.47;;
40953;SDS011;26686;50.130;8.710;2022-08-02T11:56:24;1.60;;;0.45;;
40953;SDS011;26686;50.130;8.710;2022-08-02T12:01:27;0.73;;;0.32;;
40953;SDS011;26686;50.130;8.710;2022-08-02T12:06:33;2.53;;;0.70;;
40953;SDS011;26686;50.130;8.710;2022-08-02T12:11:36;1.75;;;0.50;;
40953;SDS011;26686;50.130;8.710;2022-08-02T12:16:39;0.63;;;0.45;;
40953;SDS011;26686;50.130;8.710;2022-08-02T12:27:26;1.17;;;0.45;;
40953;SDS011;26686;50.130;8.710;2022-08-02T12:32:29;1.02;;;0.43;;
40953;SDS011;26686;50.130;8.710;2022-08-02T12:37:30;2.05;;;0.65;;
40953;SDS011;26686;50.130;8.710;2022-08-02T12:42:32;2.35;;;0.60;;
40953;SDS011;26686;50.130;8.710;2022-08-02T12:47:48;1.95;;;0.60;;
40953;SDS011;26686;50.130;8.710;2022-08-02T12:53:01;0.70;;;0.40;;
40953;SDS011;26686;50.130;8.710;2022-08-02T12:58:13;0.98;;;0.50;;
40953;SDS011;26686;50.130;8.710;2022-08-02T13:03:18;1.05;;;0.60;;
40953;SDS011;26686;50.130;8.710;2022-08-02T13:08:40;2.05;;;0.70;;
40953;SDS011;26686;50.130;8.710;2022-08-02T13:13:42;0.90;;;0.60;;
40953;SDS011;26686;50.130;8.710;2022-08-02T13:18:43;3.17;;;0.82;;
40953;SDS011;26686;50.130;8.710;2022-08-02T13:23:46;2.00;;;0.73;;
40953;SDS011;26686;50.130;8.710;2022-08-02T13:28:54;1.75;;;0.43;;
40953;SDS011;26686;50.130;8.710;2022-08-02T13:38:57;1.33;;;0.57;;
40953;SDS011;26686;50.130;8.710;2022-08-02T13:43:58;1.25;;;0.55;;
40953;SDS011;26686;50.130;8.710;2022-08-02T13:49:10;2.25;;;0.60;;
40953;SDS011;26686;50.130;8.710;2022-08-02T13:54:18;1.75;;;0.40;;
40953;SDS011;26686;50.130;8.710;2022-08-02T13:59:19;1.45;;;0.63;;
40953;SDS011;26686;50.130;8.710;2022-08-02T14:04:40;2.42;;;0.60;;
40953;SDS011;26686;50.130;8.710;2022-08-02T14:09:42;2.40;;;0.60;;
40953;SDS011;26686;50.130;8.710;2022-08-02T14:14:43;1.38;;;0.80;;
40953;SDS011;26686;50.130;8.710;2022-08-02T14:19:45;1.60;;;0.90;;
40953;SDS011;26686;50.130;8.710;2022-08-02T14:29:47;2.97;;;0.87;;
40953;SDS011;26686;50.130;8.710;2022-08-02T14:34:51;2.08;;;0.60;;
40953;SDS011;26686;50.130;8.710;2022-08-02T14:39:52;1.23;;;0.52;;
40953;SDS011;26686;50.130;8.710;2022-08-02T14:45:01;1.67;;;0.70;;
40953;SDS011;26686;50.130;8.710;2022-08-02T14:50:02;1.45;;;1.35;;
40953;SDS011;26686;50.130;8.710;2022-08-02T14:55:04;1.33;;;0.63;;
40953;SDS011;26686;50.130;8.710;2022-08-02T15:05:08;1.50;;;0.70;;
40953;SDS011;26686;50.130;8.710;2022-08-02T15:10:09;0.93;;;0.63;;
40953;SDS011;26686;50.130;8.710;2022-08-02T15:15:11;1.67;;;0.73;;
40953;SDS011;26686;50.130;8.710;2022-08-02T15:20:12;1.35;;;0.77;;
40953;SDS011;26686;50.130;8.710;2022-08-02T15:25:26;1.27;;;0.88;;
40953;SDS011;26686;50.130;8.710;2022-08-02T15:30:27;0.90;;;0.57;;
40953;SDS011;26686;50.130;8.710;2022-08-02T15:35:28;3.08;;;1.02;;
40953;SDS011;26686;50.130;8.710;2022-08-02T15:40:30;0.98;;;0.70;;
40953;SDS011;26686;50.130;8.710;2022-08-02T15:45:31;1.27;;;0.80;;
40953;SDS011;26686;50.130;8.710;2022-08-02T15:50:35;1.88;;;0.57;;
40953;SDS011;26686;50.130;8.710;2022-08-02T15:55:36;1.95;;;0.75;;
40953;SDS011;26686;50.130;8.710;2022-08-02T16:00:59;1.23;;;0.80;;
40953;SDS011;26686;50.130;8.710;2022-08-02T16:06:00;1.23;;;0.70;;
40953;SDS011;26686;50.130;8.710;2022-08-02T16:11:02;1.27;;;0.60;;
40953;SDS011;26686;50.130;8.710;2022-08-02T16:16:03;1.55;;;0.70;;
40953;SDS011;26686;50.130;8.710;2022-08-02T16:21:05;1.48;;;1.02;;
40953;SDS011;26686;50.130;8.710;2022-08-02T16:26:06;1.15;;;0.90;;
40953;SDS011;26686;50.130;8.710;2022-08-02T16:31:07;1.85;;;0.60;;
40953;SDS011;26686;50.130;8.710;2022-08-02T16:36:12;0.98;;;0.60;;
40953;SDS011;26686;50.130;8.710;2022-08-02T16:41:14;0.80;;;0.77;;
40953;SDS011;26686;50.130;8.710;2022-08-02T16:46:16;1.35;;;0.50;;
40953;SDS011;26686;50.130;8.710;2022-08-02T16:51:19;2.97;;;0.98;;
40953;SDS011;26686;50.130;8.710;2022-08-02T16:56:20;1.83;;;0.73;;
40953;SDS011;26686;50.130;8.710;2022-08-02T17:01:23;1.55;;;1.10;;
40953;SDS011;26686;50.130;8.710;2022-08-02T17:06:27;2.33;;;1.33;;
40953;SDS011;26686;50.130;8.710;2022-08-02T17:11:29;4.00;;;0.90;;
40953;SDS011;26686;50.130;8.710;2022-08-02T17:16:31;0.70;;;0.70;;
40953;SDS011;26686;50.130;8.710;2022-08-02T17:21:32;2.90;;;0.80;;
40953;SDS011;26686;50.130;8.710;2022-08-02T17:26:35;1.53;;;1.23;;
40953;SDS011;26686;50.130;8.710;2022-08-02T17:31:37;1.30;;;0.55;;
40953;SDS011;26686;50.130;8.710;2022-08-02T17:36:46;1.73;;;0.90;;
40953;SDS011;26686;50.130;8.710;2022-08-02T17:41:50;1.80;;;0.93;;
40953;SDS011;26686;50.130;8.710;2022-08-02T17:46:51;2.53;;;0.97;;
40953;SDS011;26686;50.130;8.710;2022-08-02T17:51:52;1.07;;;0.90;;
40953;SDS011;26686;50.130;8.710;2022-08-02T17:57:14;1.27;;;1.13;;
40953;SDS011;26686;50.130;8.710;2022-08-02T18:02:15;1.70;;;0.65;;
40953;SDS011;26686;50.130;8.710;2022-08-02T18:07:18;1.48;;;0.85;;
40953;SDS011;26686;50.130;8.710;2022-08-02T18:12:25;2.03;;;0.80;;
40953;SDS011;26686;50.130;8.710;2022-08-02T18:22:29;2.75;;;1.27;;
40953;SDS011;26686;50.130;8.710;2022-08-02T18:27:30;1.35;;;1.00;;
40953;SDS011;26686;50.130;8.710;2022-08-02T18:32:32;1.98;;;1.20;;
40953;SDS011;26686;50.130;8.710;2022-08-02T18:37:53;1.20;;;0.80;;
40953;SDS011;26686;50.130;8.710;2022-08-02T18:43:01;1.85;;;0.77;;
40953;SDS011;26686;50.130;8.710;2022-08-02T18:48:03;1.85;;;1.52;;
40953;SDS011;26686;50.130;8.710;2022-08-02T18:53:07;0.95;;;0.82;;
40953;SDS011;26686;50.130;8.710;2022-08-02T18:58:12;3.55;;;1.02;;
40953;SDS011;26686;50.130;8.710;2022-08-02T19:03:20;1.40;;;1.08;;
40953;SDS011;26686;50.130;8.710;2022-08-02T19:08:22;2.40;;;0.90;;
40953;SDS011;26686;50.130;8.710;2022-08-02T19:13:26;2.95;;;1.35;;
40953;SDS011;26686;50.130;8.710;2022-08-02T19:18:30;2.53;;;1.27;;
40953;SDS011;26686;50.130;8.710;2022-08-02T19:23:32;3.35;;;1.20;;
40953;SDS011;26686;50.130;8.710;2022-08-02T19:28:34;3.25;;;1.40;;
40953;SDS011;26686;50.130;8.710;2022-08-02T19:33:36;3.55;;;1.48;;
40953;SDS011;26686;50.130;8.710;2022-08-02T19:38:57;2.65;;;1.35;;
40953;SDS011;26686;50.130;8.710;2022-08-02T19:44:00;3.07;;;1.37;;
40953;SDS011;26686;50.130;8.710;2022-08-02T19:49:26;2.80;;;1.30;;
40953;SDS011;26686;50.130;8.710;2022-08-02T19:54:40;1.50;;;1.17;;
40953;SDS011;26686;50.130;8.710;2022-08-02T19:59:56;2.95;;;1.67;;
40953;SDS011;26686;50.130;8.710;2022-08-02T20:04:58;3.20;;;1.57;;
40953;SDS011;26686;50.130;8.710;2022-08-02T20:10:00;2.65;;;1.92;;
40953;SDS011;26686;50.130;8.710;2022-08-02T20:15:02;4.70;;;2.83;;
40953;SDS011;26686;50.130;8.710;2022-08-02T20:20:15;4.90;;;2.28;;
40953;SDS011;26686;50.130;8.710;2022-08-02T20:25:17;4.57;;;2.50;;
40953;SDS011;26686;50.130;8.710;2022-08-02T20:30:19;4.37;;;2.90;;
40953;SDS011;26686;50.130;8.710;2022-08-02T20:35:25;2.97;;;2.47;;
40953;SDS011;26686;50.130;8.710;2022-08-02T20:40:27;5.57;;;3.97;;
40953;SDS011;26686;50.130;8.710;2022-08-02T20:45:28;3.72;;;3.22;;
40953;SDS011;26686;50.130;8.710;2022-08-02T20:50:33;6.18;;;3.47;;
40953;SDS011;26686;50.130;8.710;2022-08-02T20:55:53;3.90;;;2.95;;
40953;SDS011;26686;50.130;8.710;2022-08-02T21:00:55;4.90;;;3.00;;
40953;SDS011;26686;50.130;8.710;2022-08-02T21:06:00;4.30;;;3.00;;
40953;SDS011;26686;50.130;8.710;2022-08-02T21:11:02;3.80;;;3.50;;
40953;SDS011;26686;50.130;8.710;2022-08-02T21:16:13;7.53;;;3.55;;
40953;SDS011;26686;50.130;8.710;2022-08-02T21:21:21;6.15;;;4.05;;
40953;SDS011;26686;50.130;8.710;2022-08-02T21:26:22;4.00;;;3.25;;
40953;SDS011;26686;50.130;8.710;2022-08-02T21:31:31;4.72;;;3.33;;
40953;SDS011;26686;50.130;8.710;2022-08-02T21:36:36;3.03;;;2.63;;
40953;SDS011;26686;50.130;8.710;2022-08-02T21:41:40;4.95;;;2.67;;
40953;SDS011;26686;50.130;8.710;2022-08-02T21:46:48;3.75;;;2.58;;
40953;SDS011;26686;50.130;8.710;2022-08-02T21:51:56;2.80;;;2.10;;
40953;SDS011;26686;50.130;8.710;2022-08-02T21:56:57;3.53;;;2.00;;
40953;SDS011;26686;50.130;8.710;2022-08-02T22:01:58;2.30;;;2.10;;
40953;SDS011;26686;50.130;8.710;2022-08-02T22:07:00;2.72;;;2.15;;
40953;SDS011;26686;50.130;8.710;2022-08-02T22:12:02;4.30;;;2.03;;
40953;SDS011;26686;50.130;8.710;2022-08-02T22:17:09;3.15;;;1.95;;
40953;SDS011;26686;50.130;8.710;2022-08-02T22:22:14;2.03;;;1.65;;
40953;SDS011;26686;50.130;8.710;2022-08-02T22:27:15;2.92;;;2.30;;
40953;SDS011;26686;50.130;8.710;2022-08-02T22:32:19;4.60;;;2.22;;
40953;SDS011;26686;50.130;8.710;2022-08-02T22:37:40;3.80;;;1.90;;
40953;SDS011;26686;50.130;8.710;2022-08-02T22:43:02;5.57;;;2.42;;
40953;SDS011;26686;50.130;8.710;2022-08-02T22:48:04;3.83;;;2.28;;
40953;SDS011;26686;50.130;8.710;2022-08-02T22:53:06;5.10;;;1.97;;
40953;SDS011;26686;50.130;8.710;2022-08-02T22:58:08;2.25;;;1.70;;
40953;SDS011;26686;50.130;8.710;2022-08-02T23:03:09;2.92;;;2.17;;
40953;SDS011;26686;50.130;8.710;2022-08-02T23:08:10;2.00;;;1.80;;
40953;SDS011;26686;50.130;8.710;2022-08-02T23:13:12;2.58;;;2.20;;
40953;SDS011;26686;50.130;8.710;2022-08-02T23:18:13;2.50;;;2.03;;
40953;SDS011;26686;50.130;8.710;2022-08-02T23:23:33;2.78;;;1.80;;
40953;SDS011;26686;50.130;8.710;2022-08-02T23:28:34;2.13;;;1.80;;
40953;SDS011;26686;50.130;8.710;2022-08-02T23:33:36;2.72;;;1.80;;
40953;SDS011;26686;50.130;8.710;2022-08-02T23:38:58;3.70;;;2.10;;
40953;SDS011;26686;50.130;8.710;2022-08-02T23:43:59;2.53;;;1.75;;
40953;SDS011;26686;50.130;8.710;2022-08-02T23:49:14;2.55;;;1.92;;
40953;SDS011;26686;50.130;8.710;2022-08-02T23:54:16;2.50;;;2.03;;
40953;SDS011;26686;50.130;8.710;2022-08-02T23:59:18;2.97;;;2.17;;
